< < Back
Terminal Aerodrome Forecast


Current Version              Previous Versions:   1  2  3  4  5  6  7  8  9  

Terminal Aerodrome Forecast

262
FTUS42 KGSP 151800 AAA
TAFGSP
TAF AMD
KGSP 151841Z 1519/1618 34015G25KT P6SM VCSH BKN025 OVC040
     FM152100 33015G30KT P6SM SCT070
     FM160400 36009KT P6SM SKC
     FM161200 04012KT P6SM SKC=

Latest METAR

870
SAUS70 KWBC 160400 RRC
MTRGSP
METAR KGSP 160353Z AUTO 00000KT 10SM CLR 03/M06 A3005 RMK AO2 SLP172
T00331056


USA.gov is the U.S. government's official web portal to all federal, state and local government web resources and services.